Time;durP1;ratioP1;P1;durP2;ratioP2;P2;SDS_P1;SDS_P2;PMS_P1;PMS_P2;Temp;Humidity;BMP_temperature;BMP_pressure;BME280_temperature;BME280_humidity;BME280_pressure;Samples;Min_cycle;Max_cycle;Signal;HPM_P1;HPM_P2
2022/09/30 00:01:54;;;;;;;0.60;0.47;;;;;;;12.80;84.61;98660.28;5113760;28;20054;-67
2022/09/30 00:04:24;;;;;;;0.47;0.47;;;;;;;12.78;84.86;98667.19;5114214;28;20340;-68
2022/09/30 00:06:55;;;;;;;2.42;1.45;;;;;;;12.78;84.71;98662.06;5114223;28;20055;-68
2022/09/30 00:09:23;;;;;;;0.60;0.60;;;;;;;12.76;84.94;98669.75;5114247;28;20043;-68
2022/09/30 00:11:52;;;;;;;1.13;1.00;;;;;;;12.77;85.31;98673.16;5113839;28;20043;-68
2022/09/30 00:14:23;;;;;;;2.05;0.82;;;;;;;12.68;85.59;98679.38;5114164;28;20489;-68
2022/09/30 00:16:52;;;;;;;0.40;0.40;;;;;;;12.68;85.61;98670.84;5113871;28;20561;-68
2022/09/30 00:19:21;;;;;;;0.45;0.45;;;;;;;12.68;85.79;98675.97;5114675;28;20369;-67
2022/09/30 00:21:50;;;;;;;0.77;0.73;;;;;;;12.68;86.12;98681.09;5113796;28;20039;-68
2022/09/30 00:24:20;;;;;;;0.45;0.45;;;;;;;12.60;86.12;98673.59;5113723;28;20052;-68
2022/09/30 00:26:49;;;;;;;1.70;0.95;;;;;;;12.67;86.30;98687.06;5113728;28;20556;-67
2022/09/30 00:29:18;;;;;;;0.38;0.38;;;;;;;12.67;86.24;98680.25;5114014;28;20390;-67
2022/09/30 00:31:46;;;;;;;0.65;0.65;;;;;;;12.66;86.37;98673.47;5113737;28;20040;-67
2022/09/30 00:34:17;;;;;;;0.90;0.90;;;;;;;12.66;86.56;98670.06;5113981;28;20122;-68
2022/09/30 00:36:47;;;;;;;1.23;0.88;;;;;;;12.66;86.86;98678.56;5113915;28;20070;-66
2022/09/30 00:39:19;;;;;;;1.60;1.45;;;;;;;12.66;86.84;98681.13;5113747;28;20489;-68
2022/09/30 00:41:52;;;;;;;0.98;0.90;;;;;;;12.66;86.89;98678.56;5113890;28;20413;-68
2022/09/30 00:44:42;;;;;;;0.82;0.82;;;;;;;12.65;87.06;98676.03;5113494;28;20104;-68
2022/09/30 00:47:27;;;;;;;;;;;;;;;12.68;87.47;98681.09;5115025;28;20503;-68
2022/09/30 00:49:59;;;;;;;2.33;1.17;;;;;;;12.67;87.28;98679.38;5116630;28;20006;-68
2022/09/30 00:52:28;;;;;;;1.25;1.15;;;;;;;12.66;87.61;98682.84;5117386;28;20047;-67
2022/09/30 00:55:00;;;;;;;0.82;0.82;;;;;;;12.64;87.73;98679.50;5117260;28;20043;-67
2022/09/30 00:57:30;;;;;;;0.68;0.68;;;;;;;12.64;87.97;98675.19;5117326;28;20160;-67
2022/09/30 01:00:00;;;;;;;0.50;0.50;;;;;;;12.66;87.99;98681.13;5117001;28;20058;-67
2022/09/30 01:02:29;;;;;;;;;;;;;;;12.62;88.08;98676.13;5117618;28;20046;-67
2022/09/30 01:04:58;;;;;;;1.65;1.17;;;;;;;12.58;88.13;98672.81;5117150;28;20383;-67
2022/09/30 01:07:27;;;;;;;0.40;0.40;;;;;;;12.58;88.46;98674.50;5117104;28;20046;-67
2022/09/30 01:09:57;;;;;;;0.80;0.80;;;;;;;12.62;88.58;98671.00;5117076;28;20035;-67
2022/09/30 01:12:26;;;;;;;0.85;0.85;;;;;;;12.65;88.86;98670.91;5117046;28;20538;-67
2022/09/30 01:14:59;;;;;;;0.50;0.50;;;;;;;12.64;88.75;98671.81;5116862;28;20485;-67
2022/09/30 01:17:41;;;;;;;1.20;0.75;;;;;;;12.62;88.97;98676.94;5117240;28;20069;-67
2022/09/30 01:20:34;;;;;;;5.28;1.83;;;;;;;12.64;88.38;98675.19;5116874;28;20485;-67
2022/09/30 01:23:27;;;;;;;0.38;0.38;;;;;;;12.67;88.63;98679.38;5117056;28;20052;-67
2022/09/30 01:26:17;;;;;;;0.43;0.43;;;;;;;12.69;88.91;98685.34;5117009;28;20089;-67
2022/09/30 01:28:56;;;;;;;;;;;;;;;12.70;88.62;98681.88;5117111;28;20047;-68
2022/09/30 01:31:43;;;;;;;0.63;0.63;;;;;;;12.71;88.69;98674.19;5117059;27;19919;-67
2022/09/30 01:34:23;;;;;;;0.80;0.60;;;;;;;12.72;88.72;98675.00;5117151;28;20051;-67
2022/09/30 01:37:07;;;;;;;0.60;0.60;;;;;;;12.74;88.47;98670.72;5116512;28;20058;-66
2022/09/30 01:39:47;;;;;;;1.75;0.95;;;;;;;12.73;88.44;98669.00;5116505;28;20040;-66
2022/09/30 01:42:26;;;;;;;0.47;0.40;;;;;;;12.74;88.32;98671.53;5116495;28;20043;-66
2022/09/30 01:45:02;;;;;;;0.52;0.52;;;;;;;12.71;88.46;98670.78;5116469;28;20081;-66
2022/09/30 01:47:40;;;;;;;2.67;1.33;;;;;;;12.69;88.58;98667.41;5116407;28;20130;-66
2022/09/30 01:50:16;;;;;;;0.40;0.40;;;;;;;12.67;88.52;98674.28;5116631;28;20382;-65
2022/09/30 01:52:53;;;;;;;0.73;0.60;;;;;;;12.65;88.55;98670.91;5116231;28;20127;-66
2022/09/30 01:55:27;;;;;;;0.40;0.40;;;;;;;12.64;88.79;98676.94;5116206;28;20047;-66
2022/09/30 01:58:01;;;;;;;0.77;0.77;;;;;;;12.66;88.92;98682.84;5116302;28;20047;-66
2022/09/30 02:00:33;;;;;;;0.85;0.73;;;;;;;12.66;89.04;98677.72;5116121;28;20078;-66
2022/09/30 02:03:09;;;;;;;0.40;0.40;;;;;;;12.68;89.05;98681.94;5115992;28;20048;-66
2022/09/30 02:05:45;;;;;;;0.40;0.40;;;;;;;12.69;88.91;98680.22;5114865;28;20048;-65
2022/09/30 02:08:19;;;;;;;0.70;0.60;;;;;;;12.71;89.26;98675.91;5114725;28;20055;-66
2022/09/30 02:10:55;;;;;;;1.08;0.98;;;;;;;12.70;88.96;98679.31;5115895;28;20051;-65
2022/09/30 02:13:31;;;;;;;0.38;0.38;;;;;;;12.67;88.96;98664.03;5115902;28;20047;-65
2022/09/30 02:16:11;;;;;;;0.60;0.45;;;;;;;12.68;89.31;98666.56;5116139;28;20043;-66
2022/09/30 02:18:45;;;;;;;0.50;0.50;;;;;;;12.71;89.39;98668.22;5116047;28;20043;-66
2022/09/30 02:21:17;;;;;;;0.40;0.40;;;;;;;12.71;89.16;98671.63;5115727;28;20127;-66
2022/09/30 02:23:50;;;;;;;0.43;0.43;;;;;;;12.69;89.23;98672.53;5115580;28;20040;-66
2022/09/30 02:26:24;;;;;;;0.70;0.70;;;;;;;12.69;89.17;98675.09;5115588;28;20048;-66
2022/09/30 02:29:03;;;;;;;0.95;0.80;;;;;;;12.69;89.23;98680.22;5115471;28;20048;-66
2022/09/30 02:31:36;;;;;;;0.55;0.55;;;;;;;12.66;89.69;98677.72;5114340;28;20055;-66
2022/09/30 02:34:09;;;;;;;0.50;0.50;;;;;;;12.66;89.54;98682.84;5115443;28;20517;-65
2022/09/30 02:36:43;;;;;;;1.05;1.00;;;;;;;12.64;89.50;98674.38;5115387;28;20040;-66
2022/09/30 02:39:20;;;;;;;0.63;0.63;;;;;;;12.63;89.63;98676.09;5115261;28;20040;-66
2022/09/30 02:41:57;;;;;;;0.52;0.52;;;;;;;12.63;89.65;98675.25;5115307;28;20134;-66
2022/09/30 02:44:27;;;;;;;0.40;0.40;;;;;;;12.64;89.81;98680.31;5115154;28;20039;-66
2022/09/30 02:47:01;;;;;;;0.43;0.43;;;;;;;12.64;89.71;98679.50;5115456;28;20046;-66
2022/09/30 02:49:38;;;;;;;0.70;0.70;;;;;;;12.67;89.73;98679.38;5115063;28;20043;-66
2022/09/30 02:52:15;;;;;;;0.68;0.68;;;;;;;12.67;90.01;98680.25;5114117;28;20519;-65
2022/09/30 02:54:53;;;;;;;0.95;0.80;;;;;;;12.66;90.04;98680.28;5115304;28;20099;-65
2022/09/30 02:57:33;;;;;;;0.60;0.57;;;;;;;12.64;89.83;98682.88;5114993;28;20039;-65
2022/09/30 03:00:02;;;;;;;1.65;0.93;;;;;;;12.66;90.14;98683.69;5114931;28;20047;-67
2022/09/30 03:02:35;;;;;;;0.60;0.60;;;;;;;12.69;90.16;98680.22;5115308;28;20069;-66
2022/09/30 03:05:06;;;;;;;0.50;0.50;;;;;;;12.69;90.14;98681.03;5114763;28;20054;-67
2022/09/30 03:07:36;;;;;;;0.68;0.68;;;;;;;12.70;90.08;98680.16;5114762;28;20048;-66
2022/09/30 03:10:13;;;;;;;0.60;0.60;;;;;;;12.70;90.13;98676.75;5113075;28;20097;-66
2022/09/30 03:12:57;;;;;;;5.93;0.90;;;;;;;12.69;90.06;98678.47;5114835;28;20055;-66
2022/09/30 03:15:35;;;;;;;1.10;1.05;;;;;;;12.71;90.13;98678.47;5114701;28;20051;-66
2022/09/30 03:18:39;;;;;;;0.50;0.50;;;;;;;12.72;90.04;98672.44;5114692;28;20055;-65
2022/09/30 03:21:20;;;;;;;0.90;0.90;;;;;;;12.67;89.75;98671.72;5101746;28;20453;-66
2022/09/30 03:24:20;;;;;;;0.80;0.77;;;;;;;12.69;90.19;98677.66;5114713;28;20379;-65
2022/09/30 03:26:55;;;;;;;0.55;0.55;;;;;;;12.69;90.25;98672.53;5115030;28;20039;-65
2022/09/30 03:29:34;;;;;;;1.00;0.88;;;;;;;12.69;89.90;98678.47;5114708;28;20439;-66
2022/09/30 03:32:17;;;;;;;0.43;0.43;;;;;;;12.69;90.03;98683.59;5114352;28;20061;-66
2022/09/30 03:35:03;;;;;;;0.95;0.88;;;;;;;12.68;89.92;98681.09;5114722;28;20074;-66
2022/09/30 03:37:44;;;;;;;0.75;0.75;;;;;;;12.67;89.86;98685.34;5114301;28;20044;-65
2022/09/30 03:40:23;;;;;;;0.35;0.35;;;;;;;12.66;90.13;98687.97;5114222;28;20524;-65
2022/09/30 03:42:57;;;;;;;0.30;0.30;;;;;;;12.69;89.94;98687.91;5114544;28;20039;-65
2022/09/30 03:45:31;;;;;;;0.60;0.60;;;;;;;12.70;90.03;98687.00;5114233;28;20040;-67
2022/09/30 03:48:05;;;;;;;0.38;0.38;;;;;;;12.68;90.11;98683.66;5114481;28;20050;-66
2022/09/30 03:50:36;;;;;;;1.95;0.95;;;;;;;12.68;90.26;98683.66;5114115;28;20076;-67
2022/09/30 03:53:12;;;;;;;0.70;0.70;;;;;;;12.69;90.04;98682.78;5112861;28;20054;-66
2022/09/30 03:55:49;;;;;;;1.17;0.82;;;;;;;12.70;89.75;98680.16;5114094;28;20497;-64
2022/09/30 03:58:20;;;;;;;0.60;0.60;;;;;;;12.71;90.15;98686.13;5114051;28;20051;-67
2022/09/30 04:00:53;;;;;;;2.20;1.65;;;;;;;12.73;90.09;98684.38;5113683;28;20056;-67
2022/09/30 04:03:22;;;;;;;1.23;1.13;;;;;;;12.74;90.11;98691.19;5113979;28;20054;-66
2022/09/30 04:05:51;;;;;;;0.30;0.30;;;;;;;12.73;90.15;98685.22;5113844;28;20048;-66
2022/09/30 04:08:21;;;;;;;0.95;0.70;;;;;;;12.70;90.17;98680.16;5113811;28;20044;-66
2022/09/30 04:10:50;;;;;;;0.75;0.75;;;;;;;12.75;89.96;98687.72;5114236;28;20120;-67
2022/09/30 04:13:19;;;;;;;1.05;0.98;;;;;;;12.76;90.12;98684.31;5114052;28;20051;-66
2022/09/30 04:15:54;;;;;;;0.43;0.43;;;;;;;12.73;89.78;98689.50;5113819;28;20082;-66
2022/09/30 04:18:23;;;;;;;0.63;0.63;;;;;;;12.74;90.18;98686.88;5114195;28;20101;-66
2022/09/30 04:20:52;;;;;;;0.55;0.55;;;;;;;12.75;90.08;98690.28;5113828;28;20047;-66
2022/09/30 04:23:22;;;;;;;0.40;0.40;;;;;;;12.75;90.05;98687.72;5117074;28;20363;-65
2022/09/30 04:25:55;;;;;;;0.40;0.40;;;;;;;12.75;90.09;98687.72;5118340;28;20319;-66
2022/09/30 04:28:23;;;;;;;0.98;0.85;;;;;;;12.74;90.22;98686.88;5117934;28;20052;-65
2022/09/30 04:30:52;;;;;;;0.40;0.40;;;;;;;12.72;90.27;98686.09;5118111;28;20481;-65
2022/09/30 04:33:21;;;;;;;0.68;0.63;;;;;;;12.71;90.43;98691.25;5117647;28;20272;-66
2022/09/30 04:35:53;;;;;;;0.43;0.43;;;;;;;12.69;90.11;98682.78;5118545;28;20040;-66
2022/09/30 04:38:24;;;;;;;0.40;0.40;;;;;;;12.70;90.62;98689.56;5117712;28;20048;-65
2022/09/30 04:40:54;;;;;;;0.63;0.63;;;;;;;12.69;90.46;98687.91;5117701;28;20139;-65
2022/09/30 04:43:24;;;;;;;0.43;0.43;;;;;;;12.70;90.60;98692.13;5117563;28;20040;-65
2022/09/30 04:45:52;;;;;;;;;;;;;;;12.71;90.72;98686.13;5118143;28;20039;-66
2022/09/30 04:48:22;;;;;;;0.52;0.52;;;;;;;12.71;90.93;98686.97;5117470;28;19919;-65
2022/09/30 04:50:51;;;;;;;0.60;0.60;;;;;;;12.74;90.66;98689.44;5117739;28;20481;-65
2022/09/30 04:53:20;;;;;;;0.82;0.60;;;;;;;12.75;90.73;98683.47;5116322;28;20044;-65
2022/09/30 04:55:50;;;;;;;0.50;0.50;;;;;;;12.74;91.02;98688.63;5117315;28;20035;-65
2022/09/30 04:58:18;;;;;;;0.70;0.70;;;;;;;12.76;90.88;98684.31;5117443;28;20047;-65
2022/09/30 05:00:47;;;;;;;1.05;0.90;;;;;;;12.78;91.00;98683.38;5117271;28;20519;-66
2022/09/30 05:03:16;;;;;;;0.52;0.52;;;;;;;12.79;91.23;98685.06;5117560;28;20497;-66
2022/09/30 05:05:44;;;;;;;0.40;0.40;;;;;;;12.82;91.22;98684.13;5117328;28;20062;-65
2022/09/30 05:08:14;;;;;;;0.60;0.60;;;;;;;12.84;91.08;98686.69;5117163;28;20043;-65
2022/09/30 05:10:45;;;;;;;0.85;0.73;;;;;;;12.87;91.09;98692.53;5117064;28;20048;-65
2022/09/30 05:13:16;;;;;;;0.88;0.73;;;;;;;12.90;91.20;98689.91;5117313;28;20047;-65
2022/09/30 05:15:48;;;;;;;1.55;0.95;;;;;;;12.90;91.17;98687.34;5116920;28;20069;-65
2022/09/30 05:18:18;;;;;;;1.75;1.10;;;;;;;12.92;91.31;98685.56;5116975;28;20051;-65
2022/09/30 05:20:49;;;;;;;0.50;0.50;;;;;;;12.95;91.06;98694.91;5117130;28;20079;-65
2022/09/30 05:23:19;;;;;;;0.30;0.30;;;;;;;12.93;91.43;98697.53;5117200;28;20073;-65
2022/09/30 05:25:48;;;;;;;0.73;0.65;;;;;;;12.94;91.31;98694.06;5116922;28;20066;-65
2022/09/30 05:28:18;;;;;;;0.70;0.70;;;;;;;12.97;91.61;98699.09;5116848;28;20039;-65
2022/09/30 05:30:48;;;;;;;3.72;1.35;;;;;;;12.98;91.12;98700.78;5117018;28;20044;-65
2022/09/30 05:33:17;;;;;;;1.05;0.93;;;;;;;12.99;91.62;98707.59;5116805;28;20051;-65
2022/09/30 05:35:46;;;;;;;0.55;0.50;;;;;;;13.02;91.38;98707.53;5116519;28;20054;-65
2022/09/30 05:38:15;;;;;;;0.65;0.65;;;;;;;13.02;91.36;98706.66;5116511;28;20072;-65
2022/09/30 05:40:44;;;;;;;0.82;0.82;;;;;;;13.02;91.67;98715.19;5116538;28;20058;-65
2022/09/30 05:43:12;;;;;;;0.73;0.63;;;;;;;13.02;91.70;98711.78;5116496;28;20039;-65
2022/09/30 05:45:42;;;;;;;0.60;0.60;;;;;;;13.01;91.74;98715.22;5116268;28;20043;-65
2022/09/30 05:48:11;;;;;;;0.40;0.40;;;;;;;13.00;91.66;98714.41;5116373;28;20482;-63
2022/09/30 05:50:40;;;;;;;0.40;0.40;;;;;;;13.02;91.46;98711.78;5116893;28;20385;-65
2022/09/30 05:53:09;;;;;;;0.80;0.80;;;;;;;13.02;91.73;98716.91;5116240;28;20389;-65
2022/09/30 05:55:38;;;;;;;1.23;1.13;;;;;;;13.05;91.85;98712.53;5116453;28;20070;-65
2022/09/30 05:58:07;;;;;;;0.55;0.55;;;;;;;13.08;91.87;98722.75;5116165;28;20520;-64
2022/09/30 06:00:35;;;;;;;0.77;0.60;;;;;;;13.08;91.82;98727.03;5115907;28;20047;-65
2022/09/30 06:03:05;;;;;;;0.40;0.40;;;;;;;13.08;91.80;98727.03;5116054;28;20036;-65
2022/09/30 06:05:34;;;;;;;0.70;0.70;;;;;;;13.09;91.58;98734.69;5115924;28;20043;-65
2022/09/30 06:08:03;;;;;;;0.80;0.80;;;;;;;13.09;91.97;98729.56;5115986;28;20035;-65
2022/09/30 06:10:32;;;;;;;1.38;1.27;;;;;;;13.12;92.09;98734.63;5115858;27;20038;-65
2022/09/30 06:13:02;;;;;;;0.90;0.80;;;;;;;13.12;91.68;98733.75;5116155;28;20379;-65
2022/09/30 06:15:31;;;;;;;0.70;0.70;;;;;;;13.12;91.72;98739.75;5116062;28;20039;-65
2022/09/30 06:18:00;;;;;;;1.40;1.07;;;;;;;13.13;91.91;98741.41;5115778;27;20036;-65
2022/09/30 06:20:30;;;;;;;0.55;0.55;;;;;;;13.12;91.84;98752.53;5115876;28;20284;-65
2022/09/30 06:23:00;;;;;;;0.77;0.70;;;;;;;13.11;91.96;98748.28;5115663;28;20139;-65
2022/09/30 06:25:29;;;;;;;0.40;0.40;;;;;;;13.11;92.21;98753.41;5115529;28;20578;-64
2022/09/30 06:27:58;;;;;;;0.65;0.65;;;;;;;13.11;92.25;98760.25;5115790;28;20044;-64
2022/09/30 06:30:27;;;;;;;0.47;0.47;;;;;;;13.14;92.35;98763.59;5115743;28;20042;-64
2022/09/30 06:33:02;;;;;;;1.55;1.25;;;;;;;13.16;92.15;98766.94;5115733;28;20328;-64
2022/09/30 06:35:32;;;;;;;0.45;0.45;;;;;;;13.17;92.03;98763.50;5115399;28;20497;-65
2022/09/30 06:38:01;;;;;;;1.50;0.60;;;;;;;13.20;92.25;98768.53;5115270;28;20039;-65
2022/09/30 06:40:29;;;;;;;1.52;1.42;;;;;;;13.18;91.75;98766.91;5115226;28;20482;-65
2022/09/30 06:42:59;;;;;;;0.50;0.50;;;;;;;13.22;91.89;98771.09;5115520;28;20497;-64
2022/09/30 06:45:31;;;;;;;7.35;2.55;;;;;;;13.22;92.27;98771.91;5114606;28;20051;-64
2022/09/30 06:48:02;;;;;;;0.47;0.47;;;;;;;13.25;92.12;98776.94;5115496;28;20127;-65
2022/09/30 06:50:33;;;;;;;0.60;0.60;;;;;;;13.26;92.07;98772.69;5115053;28;20047;-64
2022/09/30 06:53:06;;;;;;;0.50;0.50;;;;;;;13.26;91.96;98770.97;5115396;28;20058;-64
2022/09/30 06:55:37;;;;;;;0.77;0.60;;;;;;;13.27;91.99;98777.75;5115480;28;20108;-65
2022/09/30 06:58:10;;;;;;;1.58;1.40;;;;;;;13.31;92.37;98779.38;5110560;28;20040;-66
2022/09/30 07:00:41;;;;;;;2.33;1.70;;;;;;;13.31;92.41;98776.81;5107503;28;20506;-66
2022/09/30 07:03:23;;;;;;;1.10;1.00;;;;;;;13.37;92.27;98770.66;5113310;27;20059;-65
2022/09/30 07:05:57;;;;;;;0.60;0.60;;;;;;;13.39;91.72;98780.00;5105547;28;20040;-65
2022/09/30 07:08:30;;;;;;;1.92;1.83;;;;;;;13.35;92.15;98778.41;5094765;28;20127;-65
2022/09/30 07:10:59;;;;;;;0.73;0.73;;;;;;;13.41;92.19;98782.53;5106356;28;20322;-64
2022/09/30 07:13:28;;;;;;;0.47;0.47;;;;;;;13.42;92.27;98785.03;5114540;28;20040;-65
2022/09/30 07:15:57;;;;;;;;;;;;;;;13.44;92.57;98788.41;5115340;28;20092;-64
2022/09/30 07:18:27;;;;;;;0.70;0.60;;;;;;;13.46;92.38;98796.03;5114926;28;19919;-64
2022/09/30 07:20:57;;;;;;;1.20;1.02;;;;;;;13.48;92.74;98790.88;5106037;28;20036;-64
2022/09/30 07:23:26;;;;;;;1.02;0.93;;;;;;;13.47;92.78;98794.31;5109498;28;20039;-65
2022/09/30 07:25:57;;;;;;;0.55;0.55;;;;;;;13.48;92.62;98798.59;5113761;28;20031;-65
2022/09/30 07:28:30;;;;;;;0.63;0.63;;;;;;;13.49;92.54;98805.38;5114023;27;20036;-65
2022/09/30 07:31:02;;;;;;;1.42;1.33;;;;;;;13.46;92.84;98805.47;5114306;28;20051;-65
2022/09/30 07:33:51;;;;;;;0.50;0.50;;;;;;;13.48;92.82;98807.13;5112967;28;20130;-65
2022/09/30 07:36:26;;;;;;;0.52;0.52;;;;;;;13.48;92.87;98803.72;5114654;28;20066;-64
2022/09/30 07:39:04;;;;;;;1.40;1.25;;;;;;;13.53;92.87;98809.56;5114241;28;20423;-65
2022/09/30 07:41:37;;;;;;;1.25;1.17;;;;;;;13.53;92.78;98818.09;5113903;28;20043;-64
2022/09/30 07:44:12;;;;;;;0.50;0.50;;;;;;;13.53;92.99;98817.25;5113589;28;20071;-64
2022/09/30 07:46:41;;;;;;;3.22;0.63;;;;;;;13.54;92.79;98826.59;5113881;28;20042;-65
2022/09/30 07:49:13;;;;;;;1.40;1.00;;;;;;;13.56;92.79;98822.28;5099668;28;20048;-65
2022/09/30 07:51:44;;;;;;;0.40;0.40;;;;;;;13.58;92.98;98830.78;5102955;28;20374;-64
2022/09/30 07:54:16;;;;;;;0.50;0.50;;;;;;;13.57;93.39;98829.09;5110878;28;20036;-64
2022/09/30 07:56:46;;;;;;;0.73;0.73;;;;;;;13.60;93.37;98829.88;5113561;28;20051;-64
2022/09/30 07:59:37;;;;;;;0.77;0.75;;;;;;;13.62;93.43;98832.38;5113853;28;20093;-64
2022/09/30 08:02:07;;;;;;;0.93;0.93;;;;;;;13.61;93.46;98835.81;5113683;28;20501;-64
2022/09/30 08:04:37;;;;;;;1.10;1.05;;;;;;;13.61;93.51;98846.91;5107602;28;20453;-64
2022/09/30 08:07:16;;;;;;;1.27;1.17;;;;;;;13.63;93.44;98844.34;5109537;28;20097;-64
2022/09/30 08:09:44;;;;;;;0.75;0.73;;;;;;;13.62;93.31;98850.34;5093541;28;20044;-64
2022/09/30 08:12:13;;;;;;;1.95;1.50;;;;;;;13.64;93.21;98851.13;5093437;28;20482;-64
2022/09/30 08:14:43;;;;;;;0.93;0.93;;;;;;;13.64;93.31;98853.69;5094047;28;20101;-64
2022/09/30 08:17:12;;;;;;;0.60;0.60;;;;;;;13.66;93.50;98854.47;5093761;28;20048;-64
2022/09/30 08:19:43;;;;;;;0.50;0.50;;;;;;;13.62;93.33;98847.75;5093706;28;20086;-64
2022/09/30 08:22:15;;;;;;;0.30;0.30;;;;;;;13.69;93.22;98852.69;5093717;28;20383;-64
2022/09/30 08:24:44;;;;;;;0.60;0.60;;;;;;;13.73;93.33;98866.25;5093718;28;20151;-64
2022/09/30 08:27:12;;;;;;;0.73;0.73;;;;;;;13.70;93.63;98867.19;5093192;28;20048;-64
2022/09/30 08:29:42;;;;;;;;;;;;;;;13.70;93.51;98866.38;5093647;28;20056;-64
2022/09/30 08:32:22;;;;;;;0.47;0.47;;;;;;;13.72;93.68;98872.28;5093753;28;19920;-64
2022/09/30 08:34:51;;;;;;;1.40;0.90;;;;;;;13.72;93.64;98872.28;5093226;28;20446;-64
2022/09/30 08:37:22;;;;;;;1.15;0.68;;;;;;;13.75;93.71;98885.03;5093326;28;20052;-64
2022/09/30 08:39:51;;;;;;;1.67;1.52;;;;;;;13.77;93.88;98878.16;5093646;28;20131;-64
2022/09/30 08:42:37;;;;;;;0.90;0.88;;;;;;;13.81;93.48;98884.88;5093297;28;20040;-64
2022/09/30 08:45:22;;;;;;;3.22;1.20;;;;;;;13.84;93.36;98887.34;5104258;28;20085;-64
2022/09/30 08:48:01;;;;;;;0.63;0.63;;;;;;;13.88;93.80;98891.50;5093418;28;20039;-64
2022/09/30 08:50:34;;;;;;;;;;;;;;;13.92;93.94;98898.22;5093862;28;20443;-65
2022/09/30 08:53:11;;;;;;;0.77;0.68;;;;;;;13.88;93.83;98881.25;5093429;28;19977;-64
2022/09/30 08:55:43;;;;;;;0.57;0.57;;;;;;;13.99;93.76;98897.19;5093417;28;20051;-64
2022/09/30 08:58:23;;;;;;;1.08;1.02;;;;;;;14.02;93.46;98899.69;5101685;28;20043;-64
2022/09/30 09:00:57;;;;;;;1.17;1.00;;;;;;;14.04;93.52;98908.16;5092824;28;20040;-65
2022/09/30 09:03:30;;;;;;;0.98;0.95;;;;;;;14.07;93.98;98908.94;5093274;28;20044;-64
2022/09/30 09:06:15;;;;;;;1.25;1.15;;;;;;;14.14;93.65;98912.16;5093392;28;20140;-64
2022/09/30 09:09:03;;;;;;;1.23;0.98;;;;;;;14.14;93.97;98909.59;5094494;28;20040;-64
2022/09/30 09:11:48;;;;;;;0.70;0.70;;;;;;;14.18;93.60;98916.31;5106715;28;20036;-65
2022/09/30 09:14:28;;;;;;;1.23;1.13;;;;;;;14.21;93.95;98916.25;5117323;28;20048;-64
2022/09/30 09:17:12;;;;;;;0.95;0.93;;;;;;;14.24;93.72;98929.00;5117047;28;20044;-64
2022/09/30 09:19:53;;;;;;;1.55;1.30;;;;;;;14.25;93.98;98933.28;5116956;28;20045;-64
2022/09/30 09:22:23;;;;;;;1.00;0.90;;;;;;;14.30;93.83;98936.56;5117301;28;20097;-64
2022/09/30 09:24:55;;;;;;;3.03;1.77;;;;;;;14.35;93.85;98934.72;5116672;28;20047;-64
2022/09/30 09:27:27;;;;;;;1.70;1.33;;;;;;;14.38;93.63;98929.50;5098776;28;20136;-64
2022/09/30 09:30:12;;;;;;;1.00;0.90;;;;;;;14.35;93.80;98929.56;5096338;28;20048;-64
2022/09/30 09:32:43;;;;;;;0.70;0.70;;;;;;;14.38;93.81;98939.75;5096415;28;20543;-64
2022/09/30 09:35:16;;;;;;;0.60;0.60;;;;;;;14.43;93.94;98937.91;5096041;28;20048;-65
2022/09/30 09:40:56;;;;;;;0.60;0.60;;;;;;;14.46;93.59;98937.84;5096502;28;20048;-64
2022/09/30 09:43:33;;;;;;;1.27;1.17;;;;;;;14.49;93.46;98937.72;5096384;28;20378;-64
2022/09/30 09:46:16;;;;;;;1.90;1.27;;;;;;;14.53;93.94;98938.50;5096511;28;20040;-65
2022/09/30 09:48:45;;;;;;;0.38;0.38;;;;;;;14.56;93.56;98939.25;5096115;28;20382;-64
2022/09/30 09:51:23;;;;;;;0.63;0.63;;;;;;;14.59;93.71;98934.00;5095888;28;20044;-65
2022/09/30 09:53:56;;;;;;;1.63;0.65;;;;;;;14.62;93.59;98933.94;5096121;28;20043;-65
2022/09/30 09:56:30;;;;;;;0.52;0.52;;;;;;;14.66;93.28;98938.09;5108667;28;20040;-66
2022/09/30 09:59:13;;;;;;;0.70;0.70;;;;;;;14.63;93.63;98935.63;5104168;28;20058;-65
2022/09/30 10:01:50;;;;;;;1.10;1.05;;;;;;;14.69;93.72;98939.72;5115739;28;20056;-65
2022/09/30 10:04:22;;;;;;;2.05;1.33;;;;;;;14.70;93.36;98939.69;5116248;28;20044;-65
2022/09/30 10:06:54;;;;;;;0.88;0.88;;;;;;;14.69;93.46;98940.56;5116288;28;20050;-65
2022/09/30 10:09:26;;;;;;;1.02;0.93;;;;;;;14.73;93.25;98947.28;5116199;28;20134;-65
2022/09/30 10:12:17;;;;;;;0.63;0.63;;;;;;;14.76;93.17;98944.66;5116277;28;20460;-65
2022/09/30 10:14:55;;;;;;;1.25;0.98;;;;;;;14.85;93.17;98948.69;5113581;27;20550;-65
2022/09/30 10:17:29;;;;;;;1.58;0.90;;;;;;;14.90;93.44;98948.53;5095614;28;20047;-64
2022/09/30 10:20:06;;;;;;;1.65;1.55;;;;;;;14.91;93.05;98940.78;5105052;28;20043;-65
2022/09/30 10:22:36;;;;;;;1.23;1.13;;;;;;;14.92;93.05;98945.03;5108693;28;20546;-65
2022/09/30 10:25:19;;;;;;;1.23;1.13;;;;;;;14.93;92.47;98943.28;5116013;28;20103;-65
2022/09/30 10:27:53;;;;;;;0.70;0.70;;;;;;;14.95;92.90;98946.69;5115310;28;20043;-66
2022/09/30 10:30:41;;;;;;;2.25;0.80;;;;;;;14.97;92.42;98945.72;5115686;28;20109;-65
2022/09/30 10:33:24;;;;;;;0.55;0.55;;;;;;;15.02;92.87;98948.19;5115626;28;20078;-65
2022/09/30 10:35:57;;;;;;;1.27;0.90;;;;;;;15.04;92.81;98957.53;5115412;28;20047;-65
2022/09/30 10:38:28;;;;;;;1.75;0.95;;;;;;;15.06;92.18;98958.31;5116050;28;20046;-65
2022/09/30 10:40:58;;;;;;;0.75;0.73;;;;;;;15.02;92.25;98948.19;5115622;28;20143;-65
2022/09/30 10:43:32;;;;;;;0.45;0.45;;;;;;;15.12;92.52;98962.41;5115724;28;20090;-65
2022/09/30 10:46:03;;;;;;;0.80;0.47;;;;;;;15.12;92.10;98959.84;5115438;28;20040;-65
2022/09/30 10:48:54;;;;;;;1.65;0.70;;;;;;;15.20;92.36;98970.72;5115327;28;20054;-65
2022/09/30 10:51:28;;;;;;;0.47;0.47;;;;;;;15.24;92.07;98974.88;5115102;28;20101;-65
2022/09/30 10:53:58;;;;;;;0.50;0.50;;;;;;;15.29;91.43;98993.59;5115143;28;20047;-65
2022/09/30 10:56:40;;;;;;;0.55;0.52;;;;;;;15.35;91.54;98990.84;5113928;28;20126;-65
2022/09/30 10:59:24;;;;;;;0.50;0.50;;;;;;;15.38;91.48;98993.28;5093735;28;20036;-65
2022/09/30 11:02:00;;;;;;;0.40;0.40;;;;;;;15.47;91.31;99008.50;5094499;28;20436;-65
2022/09/30 11:04:38;;;;;;;1.63;0.85;;;;;;;15.53;91.20;99007.44;5094706;28;20155;-65
2022/09/30 11:07:18;;;;;;;1.60;1.20;;;;;;;15.47;91.05;99013.63;5114085;28;20048;-65
2022/09/30 11:09:56;;;;;;;0.93;0.55;;;;;;;15.46;91.05;99014.50;5114476;28;20067;-65
2022/09/30 11:12:37;;;;;;;0.88;0.88;;;;;;;15.54;90.88;99025.41;5112142;28;20040;-65
2022/09/30 11:15:16;;;;;;;0.73;0.50;;;;;;;15.57;90.63;99030.47;5113423;28;20047;-64
2022/09/30 11:17:54;;;;;;;0.60;0.47;;;;;;;15.54;90.38;99040.84;5114448;28;20478;-65
2022/09/30 11:20:26;;;;;;;0.73;0.73;;;;;;;15.49;90.52;99047.84;5100185;28;20059;-65
2022/09/30 11:23:02;;;;;;;1.10;1.00;;;;;;;15.53;90.20;99031.44;5094140;28;20044;-64
2022/09/30 11:25:41;;;;;;;0.40;0.40;;;;;;;15.64;90.25;99018.25;5094459;28;20139;-65
2022/09/30 11:28:34;;;;;;;0.50;0.50;;;;;;;15.74;90.33;99017.88;5093063;28;20058;-65
2022/09/30 11:31:12;;;;;;;0.40;0.40;;;;;;;15.77;90.36;99017.78;5093696;28;20054;-65
2022/09/30 11:33:58;;;;;;;0.50;0.43;;;;;;;15.84;90.29;99023.56;5093964;28;20046;-65
2022/09/30 11:36:35;;;;;;;0.65;0.65;;;;;;;15.78;89.66;99029.78;5093977;28;20135;-65
2022/09/30 11:39:48;;;;;;;0.47;0.47;;;;;;;15.79;89.48;99049.47;5094024;28;20498;-65
2022/09/30 11:42:24;;;;;;;0.50;0.50;;;;;;;15.81;89.41;99057.16;5089242;28;20046;-65
2022/09/30 11:45:00;;;;;;;0.50;0.50;;;;;;;15.78;89.22;99059.81;5094130;28;20444;-65
2022/09/30 11:47:53;;;;;;;0.43;0.43;;;;;;;15.83;89.28;99053.63;5093896;28;20127;-65
2022/09/30 11:50:40;;;;;;;0.60;0.60;;;;;;;15.83;89.19;99060.50;5093717;28;20481;-65
2022/09/30 11:53:23;;;;;;;0.50;0.50;;;;;;;15.82;88.97;99077.69;5093947;28;20043;-65
2022/09/30 11:56:05;;;;;;;0.40;0.40;;;;;;;15.85;88.94;99077.59;5094030;28;20083;-66
2022/09/30 11:58:39;;;;;;;0.30;0.30;;;;;;;15.87;89.03;99086.09;5093673;28;20105;-66
2022/09/30 12:01:22;;;;;;;1.38;0.70;;;;;;;15.78;88.58;99075.25;5093666;28;20108;-66
2022/09/30 12:04:04;;;;;;;0.40;0.40;;;;;;;15.72;88.80;99073.69;5093932;28;20417;-66
2022/09/30 12:06:39;;;;;;;0.88;0.88;;;;;;;15.68;88.97;99082.41;5093932;28;20056;-66
2022/09/30 12:09:16;;;;;;;0.75;0.75;;;;;;;15.69;89.03;99102.09;5093845;28;20048;-66
2022/09/30 12:11:53;;;;;;;0.60;0.60;;;;;;;15.70;88.67;99103.78;5093854;28;20448;-65